TimePDT,TemperatureF,Dew PointF,Humidity,Sea Level PressureIn,VisibilityMPH,Wind Direction,Wind SpeedMPH,Gust SpeedMPH,PrecipitationIn,Events,Conditions,WindDirDegrees,DateUTC
12:53 AM,48.9,39.0,69,30.02,10.0,South,10.4,-,N/A,,Partly Cloudy,180,2013-04-03 07:53:00
1:53 AM,46.9,39.9,77,30.04,10.0,South,11.5,-,N/A,,Partly Cloudy,190,2013-04-03 08:53:00
2:53 AM,46.0,39.9,79,30.04,10.0,South,10.4,-,N/A,,Partly Cloudy,190,2013-04-03 09:53:00
3:53 AM,45.0,39.0,80,30.05,10.0,South,9.2,-,N/A,,Partly Cloudy,190,2013-04-03 10:53:00
4:53 AM,43.0,39.0,86,30.06,10.0,SSE,9.2,-,N/A,,Partly Cloudy,160,2013-04-03 11:53:00
5:53 AM,42.1,37.9,85,30.08,10.0,Calm,Calm,-,N/A,,Partly Cloudy,0,2013-04-03 12:53:00
6:53 AM,41.0,37.9,89,30.09,10.0,SSE,8.1,-,N/A,,Partly Cloudy,160,2013-04-03 13:53:00
7:53 AM,43.0,39.0,86,30.10,10.0,SSE,6.9,-,N/A,,Partly Cloudy,160,2013-04-03 14:53:00
8:53 AM,46.9,39.9,77,30.10,10.0,South,6.9,-,N/A,,Scattered Clouds,190,2013-04-03 15:53:00
9:53 AM,51.1,39.9,66,30.11,10.0,Variable,6.9,-,N/A,,Scattered Clouds,0,2013-04-03 16:53:00
10:53 AM,53.1,37.9,57,30.11,10.0,SSW,9.2,-,N/A,,Scattered Clouds,210,2013-04-03 17:53:00
11:53 AM,54.0,37.9,55,30.09,10.0,SW,6.9,-,N/A,,Scattered Clouds,220,2013-04-03 18:53:00
12:53 PM,55.0,39.9,57,30.08,10.0,Variable,4.6,-,N/A,,Mostly Cloudy,0,2013-04-03 19:53:00
1:53 PM,57.9,37.0,46,30.06,10.0,Calm,Calm,-,N/A,,Mostly Cloudy,0,2013-04-03 20:53:00
2:53 PM,61.0,37.9,42,30.07,10.0,WSW,8.1,-,N/A,,Mostly Cloudy,240,2013-04-03 21:53:00
3:53 PM,61.0,36.0,39,30.06,10.0,SSW,6.9,19.6,N/A,,Mostly Cloudy,210,2013-04-03 22:53:00
4:53 PM,61.0,33.1,35,30.04,10.0,SW,13.8,-,N/A,,Mostly Cloudy,230,2013-04-03 23:53:00
5:53 PM,61.0,34.0,36,30.03,10.0,SW,9.2,-,N/A,,Mostly Cloudy,220,2013-04-04 00:53:00
6:53 PM,57.9,35.1,42,30.04,10.0,SSW,5.8,-,N/A,,Overcast,200,2013-04-04 01:53:00
7:53 PM,57.0,35.1,44,30.02,10.0,South,4.6,-,N/A,,Overcast,190,2013-04-04 02:53:00
8:53 PM,55.0,35.1,47,30.02,10.0,SSW,8.1,-,N/A,,Overcast,210,2013-04-04 03:53:00
9:53 PM,52.0,35.1,53,30.02,10.0,SSE,4.6,-,N/A,,Scattered Clouds,160,2013-04-04 04:53:00
10:53 PM,51.1,36.0,56,30.01,10.0,SSE,5.8,-,N/A,,Scattered Clouds,160,2013-04-04 05:53:00
11:53 PM,46.9,36.0,66,30.01,10.0,Calm,Calm,-,N/A,,Scattered Clouds,0,2013-04-04 06:53:00